Tiempo atmosférico en la estación meteorológica de Aroche, Huelva (260 m.)



Fecha
DESCASC
Temp. máxima en grados centígrados (hora)
DESCASC
Temp. mínima en grados centígrados (hora)
DESCASC
Temp. media en grados centígrados
DESCASC
Racha de viento máxima en m/sg (hora)
DESCASC
Velocidad máxima media en intervalos de 10 minutos(hora)
DESCASC
Precipitaciones diarias en mm
DESCASC
Precipitaciones de 00:00 a 06:00 en mm
DESCASC
Precipitaciones de 06:00 a 12:00 en mm
DESCASC
Precipitaciones de 12:00 a 18:00 en mm
DESCASC
Precipitaciones de 18:00 a 24:00 en mm
DESCASC
21-02-2021 14.5 (01:40) 6.6 (23:40) 10.5 22.22 (03:20) 8.61 (03:20) 15.6 4.4 11.2 0 0
20-02-2021 18.1 (15:00) 10.7 (00:00) 14.4 15 (15:40) 7.78 (14:20) 0 0 0 0 0
19-02-2021 16.7 (15:00) 3.1 (05:00) 9.9 8.33 (12:00) 4.44 (11:20) 0 0 0 0 0
18-02-2021 20.4 (16:30) 3.8 (00:00) 12.1 6.11 (17:00) 3.89 (17:00) 0 0 0 0 0
17-02-2021 21.7 (16:20) 3.2 (00:00) 12.5 5.83 (17:20) 3.89 (17:20) 0.2 0 0.2 0 0
16-02-2021 20.1 (17:20) 3.6 (00:00) 11.9 5.28 (11:10) 3.06 (11:30) 0 0 0 0 0
15-02-2021 20.8 (16:20) 2 (00:00) 11.4 8.33 (14:10) 5.28 (15:20) 0 0 0 0 0
14-02-2021 23.5 (16:30) 1.7 (00:00) 12.6 5 (17:30) 2.78 (18:10) 0 0 0 0 0
13-02-2021 20.2 (17:00) 2.3 (00:00) 11.3 4.44 (13:50) 2.78 (13:50) 0.2 0 0.2 0 0
12-02-2021 16.6 (16:10) 5.6 (00:00) 11.1 7.22 (14:40) 4.17 (14:40) 3 3 0 0 0
11-02-2021 -- (--) -- (--) -- -- (--) -- (--) -- -- -- 0 0
10-02-2021 -- (--) -- (--) -- -- (--) -- (--) -- 4.2 -- 2.4 --
09-02-2021 13.9 (15:30) 8.8 (00:00) 11.3 13.33 (15:10) 7.22 (15:00) 10.6 1 1.6 8 0
08-02-2021 13.1 (15:40) 7.8 (00:00) 10.5 12.5 (04:00) 6.94 (04:40) 8.4 5.8 0 2 0.6
07-02-2021 -- (--) -- (--) -- -- (--) -- (--) -- -- -- 0 0.8
06-02-2021 10.8 (14:30) 8.6 (00:00) 9.7 8.33 (15:00) 4.44 (05:30) 10 2.2 2.2 3.2 2.4
05-02-2021 12.3 (13:50) 9.4 (00:00) 10.8 9.17 (17:30) 4.17 (14:50) 36.4 4.8 18.2 6.2 7.2
04-02-2021 13.9 (14:20) 9.8 (00:00) 11.8 11.11 (13:20) 6.11 (13:20) 12 5.6 0.4 5.8 0.2
03-02-2021 15.7 (16:50) 11.3 (00:00) 13.5 8.33 (16:00) 4.72 (13:30) 1.8 0 0 0 1.8
02-02-2021 15.6 (16:50) 11.4 (00:00) 13.5 5.28 (15:30) 3.33 (12:20) 1.4 0.4 1 0 0
01-02-2021 15.6 (15:40) 10.9 (00:00) 13.3 10.56 (02:30) 5.28 (02:30) 0.6 0.6 0 0 0
31-01-2021 14 (14:10) 9.1 (00:00) 11.6 10 (13:00) 6.11 (13:20) 8 0 0 2.4 5.6
30-01-2021 15.6 (14:30) 9.8 (00:00) 12.7 11.67 (14:40) 7.22 (14:40) 2.8 0.2 2.6 0 0
29-01-2021 16.6 (16:00) 5.1 (00:00) 10.9 5.56 (16:10) 3.61 (16:10) 0.2 0 0.2 0 0
28-01-2021 21.7 (15:30) 4.1 (00:00) 12.9 5 (15:50) 3.61 (16:50) 0.2 0.2 0 0 0
27-01-2021 17 (16:50) 8.3 (00:00) 12.7 6.11 (17:30) 3.89 (17:30) 0 0 0 0 0
26-01-2021 16.2 (16:40) 12.8 (00:00) 14.5 4.17 (21:00) 2.5 (21:00) 5.2 0.4 2.6 1.8 0.4
25-01-2021 15.6 (16:30) 10.4 (00:00) 13 9.72 (12:20) 5.83 (12:20) 6.6 1.6 4.4 0.6 0

Gráficas

Temp. máximas Temp. mínimas Temp. medias Precipitaciones Rachas de viento máximas Velocidades máximas media en intervalos de 10 minutos

Datos horarios

Fecha y hora oficial Temperatura (ºC) Velocidad del viento (km/h) Dirección del viento Racha (km/h) Dirección de racha Precipitación (mm) Presión (hPa) Tendencia (hPa) Humedad (%)
2021-02-23 23:00:00 5.5 3 Este 5 Este 0 -- -- 87
2021-02-23 22:00:00 6.7 3 Nordeste 5 Este 0 -- -- 81
2021-02-23 21:00:00 7.7 0 Calma 5 Norte 0 -- -- 77
2021-02-23 20:00:00 10.6 0 Calma 11 Sudeste 0 -- -- 65
2021-02-23 19:00:00 16 6 Sudeste 21 Sudeste 0 -- -- 43
2021-02-23 18:00:00 18 11 Sudeste 22 Sudeste 0 -- -- 37
2021-02-23 17:00:00 18.4 13 Sudeste 26 Sudeste 0 -- -- 38
2021-02-23 16:00:00 18.6 14 Sur 27 Sudeste 0 -- -- 37
2021-02-23 15:00:00 18.4 15 Sur 24 Sur 0 -- -- 42
2021-02-23 14:00:00 18.1 13 Sur 22 Sudeste 0 -- -- 47
2021-02-23 13:00:00 17.3 9 Sudeste 24 Sudeste 0 -- -- 54
2021-02-23 12:00:00 16 14 Sudeste 24 Este 0 -- -- 54
2021-02-23 11:00:00 14.2 8 Sudeste 18 Sudeste 0 -- -- 65
2021-02-23 10:00:00 8.4 0 Calma 3 Nordeste 0 -- -- 100
2021-02-23 09:00:00 4.5 3 Este 6 Sudeste 0 -- -- 100
2021-02-23 08:00:00 3.6 4 Este 7 Este 0 -- -- 100
2021-02-23 07:00:00 3.2 0 Calma 3 Este 0 -- -- 99
2021-02-23 06:00:00 3.5 0 Calma 6 Este 0 -- -- 100
2021-02-23 05:00:00 3.9 2 Este 4 Sudeste 0 -- -- 99
2021-02-23 04:00:00 4.2 2 Sudeste 6 Este 0 -- -- 99
2021-02-23 03:00:00 4 4 Sudeste 6 Sudeste 0 -- -- 99
2021-02-23 02:00:00 4.3 3 Este 9 Sudoeste 0 -- -- 98
2021-02-23 01:00:00 4.8 2 Sudeste 5 Este 0 -- -- 97
2021-02-23 00:00:00 5.5 0 Calma 7 Norte 0 -- -- 96
2021-02-22 23:00:00 6.2 0 Calma 3 Nordeste 0 -- -- 92
2021-02-22 22:00:00 8.1 2 Nordeste 5 Sudoeste 0 -- -- 91
2021-02-22 21:00:00 9.9 2 Oeste 11 Este 0 -- -- 84
2021-02-22 20:00:00 11.2 0 Calma 6 Nordeste 0 -- -- 77
2021-02-22 19:00:00 14.7 0 Calma 8 Oeste 0 -- -- 60
2021-02-22 18:00:00 14.9 2 Oeste 8 Oeste 0 -- -- 58
2021-02-22 17:00:00 14.8 11 Oeste 21 Oeste 0 -- -- 54
2021-02-22 16:00:00 14.6 10 Oeste 19 Oeste 0 -- -- 57
2021-02-22 15:00:00 13.5 8 Oeste 19 Oeste 0 -- -- 64
2021-02-22 14:00:00 12.9 7 Oeste 20 Oeste 0 -- -- 66
2021-02-22 13:00:00 13.7 7 Oeste 16 Noroeste 0 -- -- 66
2021-02-22 12:00:00 12.1 8 Oeste 16 Oeste 0 -- -- 72
2021-02-22 11:00:00 9.7 0 Calma 4 Noroeste 0 -- -- 84
2021-02-22 10:00:00 5.6 0 Calma 3 Este 0 -- -- 100
2021-02-22 09:00:00 2.1 0 Calma 3 Sudeste 0 -- -- 100
2021-02-22 08:00:00 0.3 2 Sudeste 5 Sudeste 0 -- -- 99
2021-02-22 07:00:00 0.7 0 Calma 5 Este 0 -- -- 99
2021-02-22 06:00:00 0.6 0 Calma 3 Nordeste 0 -- -- 98
2021-02-22 05:00:00 1.6 2 Sur 3 Nordeste 0 -- -- 98
2021-02-22 04:00:00 2.2 2 Este 3 Nordeste 0 -- -- 98
2021-02-22 03:00:00 3.1 0 Calma 6 Este 0 -- -- 96
2021-02-22 02:00:00 4.8 2 Norte 11 Oeste 0 -- -- 94
2021-02-22 01:00:00 6 8 Oeste 20 Oeste 0 -- -- 93
2021-02-22 00:00:00 6.9 9 Oeste 18 Noroeste 0 -- -- 94
2021-02-21 23:00:00 7.5 9 Oeste 13 Oeste 0 -- -- 92
2021-02-21 22:00:00 7.2 7 Oeste 10 Oeste 0 -- -- 93
2021-02-21 21:00:00 8.4 6 Oeste 17 Sudoeste 0 -- -- 85
2021-02-21 20:00:00 9.8 12 Oeste 30 Oeste 0 -- -- 79
2021-02-21 19:00:00 11.2 15 Oeste 31 Oeste 0 -- -- 75
2021-02-21 18:00:00 12.1 16 Noroeste 34 Oeste 0 -- -- 63
2021-02-21 17:00:00 12.9 19 Noroeste 39 Oeste 0 -- -- 61
2021-02-21 16:00:00 11.9 18 Oeste 37 Oeste 0 -- -- 69
2021-02-21 15:00:00 10.9 18 Noroeste 33 Oeste 0 -- -- 73
2021-02-21 14:00:00 10.4 13 Noroeste 31 Noroeste 0 -- -- 78
2021-02-21 13:00:00 10.2 13 Noroeste 26 Noroeste 0 -- -- 78
2021-02-21 12:00:00 9 3 Este 22 Nordeste 0.2 -- -- 83
2021-02-21 11:00:00 8.1 6 Norte 22 Norte 0.8 -- -- 90
2021-02-21 10:00:00 8 10 Norte 26 Noroeste 2.6 -- -- 92
2021-02-21 09:00:00 8.2 7 Norte 12 Oeste 2.4 -- -- 96
2021-02-21 08:00:00 8.3 5 Oeste 20 Noroeste 1.4 -- -- 94
2021-02-21 07:00:00 9.4 15 Oeste 27 Oeste 3.8 -- -- 94
2021-02-21 06:00:00 10.4 5 Sur 39 Sur 1 -- -- 94
2021-02-21 05:00:00 11.4 17 Sur 43 Sur 1 -- -- 88
2021-02-21 04:00:00 12.6 28 Sur 80 Sur 0.8 -- -- 83
2021-02-21 03:00:00 12.5 19 Sudeste 50 Sur 1.6 -- -- 79
2021-02-21 02:00:00 14.5 27 Sur 54 Sur 0 -- -- 58
2021-02-21 01:00:00 14.1 16 Sur 37 Sudeste 0 -- -- 58
2021-02-21 00:00:00 14.1 17 Sudeste 32 Sudeste 0 -- -- 58
2021-02-20 23:00:00 14.1 15 Sudeste 31 Sudeste 0 -- -- 59
2021-02-20 22:00:00 14.4 15 Sudeste 38 Sudeste 0 -- -- 62
2021-02-20 21:00:00 14.8 13 Sudeste 30 Sur 0 -- -- 62
2021-02-20 20:00:00 15.2 15 Sudeste 30 Sudeste 0 -- -- 52
2021-02-20 19:00:00 15.2 13 Sudeste 38 Sudeste 0 -- -- 50
2021-02-20 18:00:00 16.1 18 Sur 36 Sur 0 -- -- 47
2021-02-20 17:00:00 16.6 23 Sur 44 Sudoeste 0 -- -- 44
2021-02-20 16:00:00 17.5 28 Sur 54 Sur 0 -- -- 43
2021-02-20 15:00:00 18.1 23 Sur 53 Sur 0 -- -- 44
2021-02-20 14:00:00 17 22 Sur 41 Sur 0 -- -- 61
2021-02-20 13:00:00 14.8 22 Sur 41 Sur 0 -- -- 71
2021-02-20 12:00:00 14.5 21 Sur 46 Sudeste 0 -- -- 74
2021-02-20 11:00:00 13.6 20 Sudeste 39 Sudeste 0 -- -- 80
2021-02-20 10:00:00 13.4 22 Sur 39 Sudeste 0 -- -- 82
2021-02-20 09:00:00 12.1 19 Sur 36 Sur 0 -- -- 85
2021-02-20 08:00:00 12 14 Sur 41 Sur 0 -- -- 84
2021-02-20 07:00:00 12.1 22 Sudeste 46 Sur 0 -- -- 84
2021-02-20 06:00:00 12.2 15 Sur 30 Sur 0 -- -- 85
2021-02-20 05:00:00 12 14 Sur 30 Sur 0 -- -- 85
2021-02-20 04:00:00 11.9 16 Sur 30 Sudeste 0 -- -- 84
2021-02-20 03:00:00 11.8 11 Sudeste 29 Este 0 -- -- 85
2021-02-20 02:00:00 11.8 12 Sudeste 29 Sudeste 0 -- -- 87
2021-02-20 01:00:00 11.4 9 Sudeste 19 Sur 0 -- -- 90
2021-02-20 00:00:00 10.7 9 Sudeste 17 Sudeste 0 -- -- 93
2021-02-19 23:00:00 10.3 6 Este 18 Sudeste 0 -- -- 91
2021-02-19 22:00:00 10.9 8 Este 13 Este 0 -- -- 89
2021-02-19 21:00:00 11 8 Este 12 Sudeste 0 -- -- 88
2021-02-19 20:00:00 12.2 5 Sudeste 14 Sudeste 0 -- -- 82
2021-02-19 19:00:00 13.6 10 Sur 21 Sur 0 -- -- 77
2021-02-19 18:00:00 14.6 10 Sur 24 Sur 0 -- -- 73
2021-02-19 17:00:00 14.9 11 Sur 23 Sur 0 -- -- 74
2021-02-19 16:00:00 15.7 14 Sur 26 Sur 0 -- -- 72
2021-02-19 15:00:00 16.7 15 Sur 27 Sudoeste 0 -- -- 68
2021-02-19 14:00:00 15.7 14 Sur 28 Sudeste 0 -- -- 70
2021-02-19 13:00:00 15.5 13 Sur 30 Sudeste 0 -- -- 70
2021-02-19 12:00:00 13.3 14 Sur 30 Sur 0 -- -- 79
2021-02-19 11:00:00 10.8 8 Sur 21 Sur 0 -- -- 98
2021-02-19 10:00:00 8.2 0 Calma 2 Este 0 -- -- 100
2021-02-19 09:00:00 5.8 0 Calma 5 Nordeste 0 -- -- 100
2021-02-19 08:00:00 4.8 0 Calma 5 Nordeste 0 -- -- 100
2021-02-19 07:00:00 3.7 0 Calma 9 Sur 0 -- -- 100
2021-02-19 06:00:00 3.8 2 Este 5 Norte 0 -- -- 100
2021-02-19 05:00:00 3.1 0 Calma 4 Sur 0 -- -- 99
2021-02-19 04:00:00 3.8 2 Sudeste 4 Sudeste 0 -- -- 99
2021-02-19 03:00:00 5.2 0 Calma 6 Este 0 -- -- 99
2021-02-19 02:00:00 6 3 Nordeste 4 Este 0 -- -- 99
2021-02-19 01:00:00 6.4 0 Calma 3 Este 0 -- -- 98
2021-02-19 00:00:00 7.4 2 Nordeste 4 Nordeste 0 -- -- 96
2021-02-18 23:00:00 8.9 2 Nordeste 3 Nordeste 0 -- -- 94
2021-02-18 22:00:00 10.8 0 Calma 10 Sur 0 -- -- 91
2021-02-18 21:00:00 13 4 Sur 17 Sur 0 -- -- 88
2021-02-18 20:00:00 14.1 0 Calma 15 Sudeste 0 -- -- 81
2021-02-18 19:00:00 15.8 6 Sudoeste 15 Sur 0 -- -- 70
2021-02-18 18:00:00 18.1 11 Sudoeste 20 Sudoeste 0 -- -- 55
2021-02-18 17:00:00 20 14 Sur 22 Sudoeste 0 -- -- 49
2021-02-18 16:00:00 19.5 11 Oeste 19 Oeste 0 -- -- 44
2021-02-18 15:00:00 19.2 9 Oeste 18 Noroeste 0 -- -- 41
2021-02-18 14:00:00 18.7 7 Oeste 15 Oeste 0 -- -- 47
2021-02-18 13:00:00 18.1 6 Sudoeste 15 Oeste 0 -- -- 46
2021-02-18 12:00:00 16.3 2 Sudeste 5 Sudeste 0 -- -- 52
2021-02-18 11:00:00 12 0 Calma 5 Nordeste 0 -- -- 84
2021-02-18 10:00:00 8 2 Este 5 Este 0 -- -- 100
2021-02-18 09:00:00 4.7 3 Este 6 Nordeste 0 -- -- 100
2021-02-18 08:00:00 3.9 2 Este 4 Nordeste 0 -- -- 99
2021-02-18 07:00:00 3.8 3 Sudeste 7 Sudeste 0 -- -- 100
2021-02-18 06:00:00 4.1 4 Sudeste 5 Sudeste 0 -- -- 99
2021-02-18 05:00:00 4.2 0 Calma 4 Nordeste 0 -- -- 99
2021-02-18 04:00:00 5.3 0 Calma 6 Sudeste 0 -- -- 100
2021-02-18 03:00:00 5.7 4 Sudeste 5 Sudeste 0 -- -- 98
2021-02-18 02:00:00 5.6 4 Sudeste 5 Sudeste 0 -- -- 99
2021-02-18 01:00:00 6.1 3 Este 4 Este 0 -- -- 98
2021-02-18 00:00:00 6.4 3 Este 4 Este 0 -- -- 97
2021-02-17 23:00:00 7.3 0 Calma 4 Este 0 -- -- 93
2021-02-17 22:00:00 8.4 0 Calma 3 Sudeste 0 -- -- 93
2021-02-17 21:00:00 10.3 0 Calma 7 Nordeste 0 -- -- 84
2021-02-17 20:00:00 12.6 3 Nordeste 10 Nordeste 0 -- -- 76
2021-02-17 19:00:00 17.3 0 Calma 12 Oeste 0 -- -- 61
2021-02-17 18:00:00 20 9 Noroeste 21 Oeste 0 -- -- 51
2021-02-17 17:00:00 20.9 13 Oeste 18 Oeste 0 -- -- 50
2021-02-17 16:00:00 21.5 7 Oeste 13 Oeste 0 -- -- 55
2021-02-17 15:00:00 21.6 4 Sudoeste 13 Norte 0 -- -- 53
2021-02-17 14:00:00 19.9 7 Noroeste 13 Noroeste 0 -- -- 59
2021-02-17 13:00:00 18.7 2 Norte 12 Noroeste 0 -- -- 61
2021-02-17 12:00:00 16.4 3 Noroeste 8 Norte 6.2 -- -- 66
2021-02-17 11:00:00 12.2 0 Calma 3 Sudeste 0 -- -- 90
2021-02-17 10:00:00 7.5 0 Calma 4 Este 0 -- -- 100
2021-02-17 09:00:00 3.8 3 Sudeste 7 Este 0 -- -- 100
2021-02-17 08:00:00 3.2 5 Sudeste 7 Sudeste 0 -- -- 99
2021-02-17 07:00:00 3.5 2 Sudeste 4 Sudeste 0 -- -- 99
2021-02-17 06:00:00 4.7 4 Este 6 Sudeste 0 -- -- 100
2021-02-17 05:00:00 4.7 2 Este 6 Sudeste 0 -- -- 99
2021-02-17 04:00:00 4.7 3 Sudeste 7 Sudeste 0 -- -- 99
2021-02-17 03:00:00 5.4 4 Sudeste 7 Sudeste 0 -- -- 98
2021-02-17 02:00:00 6.2 3 Este 5 Sudeste 0 -- -- 99
2021-02-17 01:00:00 6.7 2 Este -- -- 0 -- -- 98
2021-02-17 00:00:00 7 2 Este 6 Sudeste 0 -- -- 98
2021-02-16 23:00:00 7.8 3 Este 5 Este 0 -- -- 96
2021-02-16 22:00:00 8.8 3 Nordeste 5 Nordeste 0 -- -- 94
2021-02-16 21:00:00 10.2 4 Nordeste 10 Norte 0 -- -- 91
2021-02-16 20:00:00 12.4 3 Nordeste 6 Sur 0 -- -- 83
2021-02-16 19:00:00 16.4 4 Sur 13 Sudoeste 0 -- -- 68
2021-02-16 18:00:00 18.6 7 Sudoeste 12 Sudoeste 0 -- -- 61
2021-02-16 17:00:00 19.8 5 Sur 14 Sudoeste 0 -- -- 52
2021-02-16 16:00:00 19.2 9 Sudoeste 17 Sudoeste 0 -- -- 55
2021-02-16 15:00:00 19.7 10 Sudoeste 18 Sudoeste 0 -- -- 55
2021-02-16 14:00:00 19.2 9 Sudoeste 15 Sur 0 -- -- 57
2021-02-16 13:00:00 18.5 8 Sur 18 Sur 0 -- -- 53
2021-02-16 12:00:00 17.3 7 Sur 19 Sudoeste 0 -- -- 54
2021-02-16 11:00:00 15.4 3 Sur 9 Sur 0 -- -- 58
2021-02-16 10:00:00 9.3 2 Sudoeste 5 Sur 0 -- -- 87
2021-02-16 09:00:00 4.6 0 Calma 4 Nordeste 0 -- -- 95
2021-02-16 08:00:00 4.4 0 Calma 7 Sudoeste 0 -- -- 91
2021-02-16 07:00:00 5 2 Oeste 9 Este 0 -- -- 91
2021-02-16 06:00:00 4.3 0 Calma 7 Sur 0 -- -- 99
2021-02-16 05:00:00 3.8 0 Calma 4 Oeste 0 -- -- 98
2021-02-16 04:00:00 4.3 0 Calma 3 Sur 0 -- -- 97
2021-02-16 03:00:00 5 0 Calma 4 Sudeste 0 -- -- 96
2021-02-16 02:00:00 5.8 0 Calma 4 Sudoeste 0 -- -- 96
2021-02-16 01:00:00 6.4 0 Calma 5 Sur 0 -- -- 93
2021-02-16 00:00:00 7.2 0 Calma 6 Sur 0 -- -- 93
2021-02-15 23:00:00 8.3 0 Calma 9 Sur 0 -- -- 89
2021-02-15 22:00:00 11.3 3 Este 16 Sudeste 0 -- -- 77
2021-02-15 21:00:00 14.4 7 Este 20 Sudeste 0 -- -- 68
2021-02-15 20:00:00 14 3 Este 10 Sudeste 0 -- -- 69
2021-02-15 19:00:00 17.2 6 Sudeste 23 Sudeste 0 -- -- 58
2021-02-15 18:00:00 19.2 14 Sudeste 30 Sudeste 0 -- -- 50
2021-02-15 17:00:00 20.5 11 Sur 25 Sudeste 0 -- -- 47
2021-02-15 16:00:00 20.5 14 Sudeste 28 Sudeste 0 -- -- 45
2021-02-15 15:00:00 20.1 18 Sudeste 30 Sudeste 0 -- -- 46
2021-02-15 14:00:00 19.6 13 Sudeste 28 Sudeste 0 -- -- 47
2021-02-15 13:00:00 19.3 12 Sudeste 26 Sudeste 0 -- -- 46
2021-02-15 12:00:00 17.7 5 Sur 13 Sudeste 0 -- -- 53
2021-02-15 11:00:00 13.7 5 Sur 10 Sur 0 -- -- 73
2021-02-15 10:00:00 7.7 0 Calma 3 Sur 0 -- -- 99
2021-02-15 09:00:00 3.1 0 Calma 4 Norte 0 -- -- 100
2021-02-15 08:00:00 2.1 0 Calma 3 Norte 0 -- -- 98
2021-02-15 07:00:00 2.2 0 Calma 2 Nordeste 0 -- -- 98
2021-02-15 06:00:00 3.3 0 Calma 6 Nordeste 0 -- -- 96
2021-02-15 05:00:00 4.3 0 Calma 9 Este 0 -- -- 97
2021-02-15 04:00:00 4.4 0 Calma 4 Este 0 -- -- 97
2021-02-15 03:00:00 5 3 Sudeste 4 Sudeste 0 -- -- 99
2021-02-15 02:00:00 5 2 Este 8 Este 0 -- -- 96
2021-02-15 01:00:00 5.5 3 Sudeste 7 Este 0 -- -- 96
2021-02-15 00:00:00 6 3 Sudeste 5 Este 0 -- -- 92
2021-02-14 23:00:00 7.3 3 Este 6 Sudeste 0 -- -- 92
2021-02-14 22:00:00 7.7 3 Este 5 Este 0 -- -- 91
2021-02-14 21:00:00 9.1 0 Calma 3 Nordeste 0 -- -- 85
2021-02-14 20:00:00 13.2 0 Calma 6 Norte 0 -- -- 69
2021-02-14 19:00:00 18.5 3 Este 17 Sudeste 0 -- -- 45
2021-02-14 18:00:00 21.8 7 Sudeste 18 Sur 0 -- -- 41
2021-02-14 17:00:00 23.1 3 Sudeste 11 Sudeste 0 -- -- 38
2021-02-14 16:00:00 23.4 6 Sur 13 Sur 0 -- -- 41
2021-02-14 15:00:00 22.8 6 Sur 12 Sur 0 -- -- 41
2021-02-14 14:00:00 21.5 3 Sur 8 Este 0 -- -- 45
2021-02-14 13:00:00 20.9 4 Sudeste 12 Este 0 -- -- 45
2021-02-14 12:00:00 18.3 3 Sudoeste 4 Oeste 0 -- -- 52
2021-02-14 11:00:00 14.2 0 Calma 5 Este 0 -- -- 71
2021-02-14 10:00:00 8.6 3 Este 5 Este 0 -- -- 97
2021-02-14 09:00:00 3 2 Este 5 Sudeste 0 -- -- 100
2021-02-14 08:00:00 1.9 0 Calma 6 Sudeste 0 -- -- 99
2021-02-14 07:00:00 2.4 5 Sudeste 8 Sudeste 0 -- -- 98
2021-02-14 06:00:00 3.1 0 Calma 6 Este 0 -- -- 98
2021-02-14 05:00:00 3.5 2 Este 6 Sudeste 0 -- -- 99
2021-02-14 04:00:00 4.1 5 Sudeste 9 Sudeste 0 -- -- 98
2021-02-14 03:00:00 3.8 4 Sudeste 6 Sudeste 0 -- -- 98
2021-02-14 02:00:00 4 2 Este 5 Sudeste 0 -- -- 97
2021-02-14 01:00:00 4.8 5 Este 6 Este 0 -- -- 97
2021-02-14 00:00:00 5.1 2 Este 5 Este 0 -- -- 96
2021-02-13 23:00:00 5.5 5 Sudeste 8 Sudeste 0 -- -- 93
2021-02-13 22:00:00 6.2 3 Sur 5 Sur 0 -- -- 89
2021-02-13 21:00:00 8.5 4 Este 6 Este 0 -- -- 81
2021-02-13 20:00:00 10.9 3 Nordeste 8 Nordeste 0 -- -- 70
2021-02-13 19:00:00 14.9 5 Nordeste 10 Noroeste 0 -- -- 56
2021-02-13 18:00:00 19.2 6 Noroeste 12 Oeste 0 -- -- 38
2021-02-13 17:00:00 20.2 4 Oeste 10 Oeste 0 -- -- 30
2021-02-13 16:00:00 19.6 8 Oeste 14 Oeste 0 -- -- 35
2021-02-13 15:00:00 19.1 9 Oeste 14 Oeste 0 -- -- 41
2021-02-13 14:00:00 18 8 Oeste 16 Oeste 0 -- -- 50
2021-02-13 13:00:00 15.8 3 Noroeste 6 Sudoeste 0 -- -- 64
2021-02-13 08:00:00 -- -- -- -- -- -- -- -- --
2021-02-13 07:00:00 -- -- -- -- -- -- -- -- --
2021-02-13 06:00:00 -- -- -- -- -- -- -- -- --
2021-02-13 05:00:00 -- -- -- -- -- -- -- -- --
2021-02-13 04:00:00 -- -- -- -- -- -- -- -- --
2021-02-13 03:00:00 -- -- -- -- -- -- -- -- --
2021-02-13 02:00:00 -- -- -- -- -- -- -- -- --
2021-02-13 01:00:00 -- -- -- -- -- -- -- -- --
2021-02-13 00:00:00 -- -- -- -- -- -- -- -- --
2021-02-12 23:00:00 -- -- -- -- -- -- -- -- --
2021-02-12 22:00:00 -- -- -- -- -- -- -- -- --
2021-02-12 21:00:00 -- -- -- -- -- -- -- -- --
2021-02-12 20:00:00 -- -- -- -- -- -- -- -- --
2021-02-12 19:00:00 -- -- -- -- -- -- -- -- --
2021-02-12 18:00:00 -- -- -- -- -- -- -- -- --
2021-02-12 17:00:00 16.4 7 Noroeste 21 Noroeste 0 -- -- 62
2021-02-12 16:00:00 16.4 6 Noroeste 26 Oeste 0 -- -- 64
2021-02-12 15:00:00 16 11 Noroeste 26 Oeste 0 -- -- 67
2021-02-12 14:00:00 15.4 13 Norte 22 Noroeste 0 -- -- 69
2021-02-12 13:00:00 14.6 11 Noroeste 24 Noroeste 0 -- -- 75
2021-02-12 12:00:00 13.4 13 Noroeste 24 Norte 0 -- -- 81
2021-02-12 11:00:00 12.8 13 Noroeste 23 Noroeste 0 -- -- 86
2021-02-12 10:00:00 11.4 9 Noroeste 16 Noroeste 0 -- -- 94
2021-02-12 09:00:00 10.2 5 Oeste 10 Noroeste 0 -- -- 100
2021-02-12 08:00:00 8.5 4 Oeste 8 Oeste 0 -- -- 97
2021-02-12 07:00:00 10.8 2 Noroeste 18 Oeste 0 -- -- 96
2021-02-12 06:00:00 12.2 10 Oeste 26 Oeste 0 -- -- 96
2021-02-12 05:00:00 13 11 Oeste 23 Oeste 1.4 -- -- 100
2021-02-12 04:00:00 12.9 5 Oeste 10 Oeste 0.4 -- -- 100
2021-02-12 03:00:00 12.7 0 Calma 8 Sudoeste 1 -- -- 100
2021-02-12 02:00:00 12.6 0 Calma 5 Oeste 0.2 -- -- 100
2021-02-12 01:00:00 12.5 0 Calma 3 Sudoeste 0 -- -- 100
2021-02-12 00:00:00 12.7 2 Oeste 5 Noroeste 0 -- -- 100
2021-02-11 23:00:00 12.7 0 Calma 4 Oeste 0 -- -- 99
2021-02-11 22:00:00 13 3 Oeste 5 Oeste 0 -- -- 98
2021-02-11 21:00:00 13.4 0 Calma 8 Sur 0 -- -- 98
2021-02-11 20:00:00 13.5 0 Calma 5 Este 0 -- -- 97
2021-02-11 19:00:00 14.2 0 Calma 5 Noroeste 0 -- -- 95
2021-02-11 18:00:00 14.7 4 Noroeste 12 Oeste 0 -- -- 93
2021-02-11 17:00:00 15.4 4 Oeste 9 Oeste 0 -- -- 89
2021-02-11 16:00:00 15.2 4 Noroeste 18 Sudoeste 0 -- -- 90
2021-02-11 15:00:00 16.2 11 Sudoeste 19 Sudoeste 0 -- -- 82
2021-02-11 14:00:00 16.2 9 Sudoeste 19 Sur 0 -- -- 86
2021-02-11 13:00:00 15.9 6 Sur 14 Sudoeste 0 -- -- 89
2021-02-11 12:00:00 15.3 8 Sur 15 Sudoeste 0 -- -- 90
2021-02-11 11:00:00 14 9 Sudoeste -- -- -- -- -- 100
2021-02-11 10:00:00 -- -- -- -- -- -- -- -- --
2021-02-11 09:00:00 -- -- -- -- -- -- -- -- --
2021-02-11 08:00:00 -- -- -- -- -- -- -- -- --
2021-02-11 07:00:00 -- -- -- -- -- -- -- -- --
2021-02-11 06:00:00 -- -- -- -- -- -- -- -- --
2021-02-11 05:00:00 -- -- -- -- -- -- -- -- --
2021-02-11 04:00:00 -- -- -- -- -- -- -- -- --
2021-02-11 03:00:00 -- -- -- -- -- -- -- -- --
2021-02-11 02:00:00 -- -- -- -- -- -- -- -- --
2021-02-11 01:00:00 -- -- -- -- -- -- -- -- --
2021-02-11 00:00:00 -- -- -- -- -- -- -- -- --
2021-02-10 23:00:00 -- -- -- -- -- -- -- -- --
2021-02-10 22:00:00 -- -- -- -- -- -- -- -- --
2021-02-10 21:00:00 14.1 6 Oeste 18 Oeste 0 -- -- 100
2021-02-10 20:00:00 14.3 6 Oeste 23 Oeste 0.2 -- -- 100
2021-02-10 19:00:00 14.5 14 Oeste 23 Oeste 0.6 -- -- 100
2021-02-10 18:00:00 14.7 13 Oeste 24 Oeste 1 -- -- 100
2021-02-10 17:00:00 14.9 11 Oeste 24 Oeste 0.8 -- -- 100
2021-02-10 16:00:00 14.9 14 Oeste 35 Oeste 0.2 -- -- 99
2021-02-10 15:00:00 15 14 Oeste 26 Noroeste 0.4 -- -- 100
2021-02-10 14:00:00 14.5 15 Oeste 26 Oeste 0 -- -- 100
2021-02-10 13:00:00 13.6 5 Oeste 13 Oeste 0 -- -- 100
2021-02-10 12:00:00 13.3 5 Sudoeste 8 Sudoeste -- -- -- 100
2021-02-10 11:00:00 12.6 0 Calma 10 Oeste -- -- -- 100
2021-02-10 10:00:00 12.6 5 Oeste -- -- -- -- -- 100
2021-02-10 09:00:00 -- -- -- -- -- -- -- -- --
2021-02-10 08:00:00 12.4 9 Oeste 25 Oeste 1.4 -- -- 100
2021-02-10 07:00:00 12.3 13 Oeste 37 Oeste 0.4 -- -- 100
2021-02-10 06:00:00 11.7 10 Oeste 23 Oeste 2.8 -- -- 100
2021-02-10 05:00:00 11.5 9 Oeste 17 Oeste 1.4 -- -- 100
2021-02-10 04:00:00 11.7 9 Sudoeste 29 Sudoeste 0 -- -- 97
2021-02-10 03:00:00 11.2 8 Oeste 19 Oeste 0 -- -- 97
2021-02-10 02:00:00 11.1 4 Noroeste 23 Oeste 0 -- -- 95
2021-02-10 01:00:00 11 9 Oeste 21 Sudoeste 0 -- -- 96
2021-02-10 00:00:00 10.8 4 Oeste 33 Noroeste 0 -- -- 93
2021-02-09 23:00:00 11.5 12 Oeste 30 Sudoeste 0 -- -- 93
2021-02-09 22:00:00 11.7 13 Oeste 27 Sudoeste 0 -- -- 93
2021-02-09 21:00:00 11.7 9 Sudoeste 19 Sudoeste 0 -- -- 94
2021-02-09 20:00:00 12 4 Oeste 22 Oeste 0 -- -- 95
2021-02-09 19:00:00 12 7 Oeste 17 Oeste 0 -- -- 98
2021-02-09 18:00:00 11.8 8 Oeste 32 Oeste 3.4 -- -- 98
2021-02-09 17:00:00 12.4 11 Oeste 33 Sudoeste 1.6 -- -- 94
2021-02-09 16:00:00 13.4 23 Oeste 48 Sudoeste 0.2 -- -- 87
2021-02-09 15:00:00 13.6 26 Sudoeste 42 Sudoeste 0 -- -- 87
2021-02-09 14:00:00 12.6 20 Sudoeste 40 Sudoeste 0.6 -- -- 94
2021-02-09 13:00:00 12 16 Sudoeste 32 Sudoeste 2.2 -- -- 95
2021-02-09 12:00:00 11.7 12 Sudoeste 36 Sudoeste 1 -- -- 95
2021-02-09 11:00:00 11.7 14 Sudoeste 25 Sudoeste 0 -- -- 93
2021-02-09 10:00:00 11.1 16 Sudoeste 35 Sudoeste 0.6 -- -- 96
2021-02-09 09:00:00 11 17 Sur 31 Sudoeste 0 -- -- 93
2021-02-09 08:00:00 10.7 15 Sur 30 Sudoeste 0 -- -- 92
2021-02-09 07:00:00 10.8 19 Sur 33 Sur 0 -- -- 92
2021-02-09 06:00:00 10.4 11 Sur 27 Sur 0 -- -- 93
2021-02-09 05:00:00 10.4 10 Sur 20 Sur 0 -- -- 93
2021-02-09 04:00:00 10.2 11 Sur 20 Sudoeste 0 -- -- 94
2021-02-09 03:00:00 9.9 9 Sudoeste 16 Sudoeste 0 -- -- 97
2021-02-09 02:00:00 9.5 10 Sudoeste 16 Sudoeste 0 -- -- 100
2021-02-09 01:00:00 9.3 3 Este 5 Este 1 -- -- 100
2021-02-09 00:00:00 8.8 0 Calma 3 Sur 0.6 -- -- 100
2021-02-08 23:00:00 8.1 0 Calma 2 Este 0 -- -- 98
2021-02-08 22:00:00 8.8 0 Calma 8 Oeste 0 -- -- 94
2021-02-08 21:00:00 10.1 5 Oeste 19 Oeste 0 -- -- 90
2021-02-08 20:00:00 11.3 12 Oeste 22 Sudoeste 0 -- -- 87
2021-02-08 19:00:00 11.9 7 Oeste 28 Oeste 0 -- -- 84
2021-02-08 18:00:00 12.5 15 Oeste 29 Oeste 0 -- -- 78
2021-02-08 17:00:00 11.6 17 Oeste 35 Oeste 0 -- -- 90
2021-02-08 16:00:00 13 19 Oeste 32 Oeste 0.2 -- -- 78
2021-02-08 15:00:00 11.9 15 Oeste 32 Oeste 0 -- -- 90
2021-02-08 14:00:00 12.2 13 Oeste 31 Noroeste 0 -- -- 86
2021-02-08 13:00:00 11.7 14 Oeste 37 Oeste 1.8 -- -- 95
2021-02-08 12:00:00 12 22 Oeste 41 Oeste 0 -- -- 86
2021-02-08 11:00:00 10.9 17 Oeste 28 Oeste 0 -- -- 93
2021-02-08 10:00:00 10 7 Oeste 18 Oeste 0 -- -- 98
2021-02-08 09:00:00 9.9 10 Oeste 21 Sudoeste 0 -- -- 98
2021-02-08 08:00:00 9.9 8 Oeste 24 Oeste 0 -- -- 97
2021-02-08 07:00:00 10.1 10 Oeste 20 Oeste 0 -- -- 97
2021-02-08 06:00:00 10 10 Oeste 33 Oeste 0 -- -- 94
2021-02-08 05:00:00 10.5 18 Oeste 45 Oeste 1.4 -- -- 93
2021-02-08 04:00:00 12.2 19 Oeste 45 Oeste 2.4 -- -- 98
2021-02-08 03:00:00 11.9 15 Sudoeste 30 Sudoeste 0.6 -- -- 98
2021-02-08 02:00:00 11.1 11 Sudoeste 28 Sur 1 -- -- 99
2021-02-08 01:00:00 10.3 10 Sudoeste 29 Sudoeste 0.4 -- -- 98
2021-02-08 00:00:00 9.9 8 Sudoeste 20 Sur 0.2 -- -- 97
2021-02-07 23:00:00 9.6 5 Sur 18 Sur 0.6 -- -- 97
2021-02-07 22:00:00 9.8 7 Sur 16 Sur 0 -- -- 94
2021-02-07 21:00:00 9.4 2 Sur 4 Sudeste 0 -- -- 95
2021-02-07 20:00:00 9.4 2 Sur 6 Sudoeste 0 -- -- 94
2021-02-07 19:00:00 9.7 5 Oeste 19 Oeste 0 -- -- 92
2021-02-07 18:00:00 10.2 4 Oeste 18 Oeste 0 -- -- 82
2021-02-07 17:00:00 10.3 9 Oeste 28 Oeste 0 -- -- 79
2021-02-07 16:00:00 10.8 15 Oeste 26 Oeste 0 -- -- 74
2021-02-07 15:00:00 10.1 12 Noroeste 27 Noroeste 0 -- -- 75
2021-02-07 14:00:00 9.8 14 Oeste 28 Oeste 0 -- -- 73
2021-02-07 13:00:00 9.6 13 Noroeste 29 Oeste 0 -- -- 76
2021-02-07 12:00:00 9.5 13 Oeste 28 Noroeste 0 -- -- 76
2021-02-07 11:00:00 8.4 12 Noroeste 24 Noroeste 0 -- -- 79
2021-02-07 10:00:00 6.9 9 Noroeste 22 Noroeste -- -- -- 86
2021-02-07 09:00:00 6.5 9 Noroeste -- -- -- -- -- 88
2021-02-07 08:00:00 6.6 9 Noroeste -- -- -- -- -- 89
2021-02-07 07:00:00 6.9 7 Oeste -- -- -- -- -- 92
2021-02-07 06:00:00 7.3 4 Oeste -- -- -- -- -- 95
2021-02-07 05:00:00 7.8 12 Noroeste 29 Noroeste -- -- -- 94
2021-02-07 04:00:00 8.8 11 Noroeste 22 Noroeste -- -- -- 95
2021-02-07 03:00:00 9.1 8 Noroeste 19 Noroeste 0 -- -- 95
2021-02-07 02:00:00 9.1 9 Noroeste 22 Noroeste 0 -- -- 96
2021-02-07 01:00:00 9 6 Noroeste 19 Noroeste 0.2 -- -- 97
2021-02-07 00:00:00 9 9 Noroeste 23 Oeste 0.2 -- -- 98
2021-02-06 23:00:00 9.1 10 Noroeste 22 Noroeste 0 -- -- 96
2021-02-06 22:00:00 8.9 9 Noroeste 19 Oeste 0.2 -- -- 98
2021-02-06 21:00:00 8.6 6 Oeste 16 Oeste 0.4 -- -- 100
2021-02-06 20:00:00 8.7 4 Oeste 12 Oeste 1 -- -- 100
2021-02-06 19:00:00 8.7 8 Oeste 23 Sudoeste 0.6 -- -- 99
2021-02-06 18:00:00 9.2 10 Oeste 18 Oeste 1.6 -- -- 98
2021-02-06 17:00:00 9.4 10 Oeste 23 Oeste 0.4 -- -- 98
2021-02-06 16:00:00 10.1 10 Oeste 24 Noroeste 0.2 -- -- 97
2021-02-06 15:00:00 9.8 16 Oeste 30 Oeste 1 -- -- 95
2021-02-06 14:00:00 10.3 10 Oeste 21 Oeste 0 -- -- 96
2021-02-06 13:00:00 9.9 11 Oeste 23 Oeste 0 -- -- 97
2021-02-06 12:00:00 9.7 10 Oeste 18 Oeste 1.2 -- -- 100
2021-02-06 11:00:00 9.5 11 Oeste 18 Oeste 0.2 -- -- 100
2021-02-06 10:00:00 9.3 9 Oeste 26 Sudoeste 0.6 -- -- 100
2021-02-06 09:00:00 9.2 10 Oeste 22 Sudoeste 0 -- -- 99
2021-02-06 08:00:00 9.2 10 Oeste 23 Oeste 0 -- -- 100
2021-02-06 07:00:00 9 12 Oeste 24 Oeste 0.2 -- -- 100
2021-02-06 06:00:00 8.8 9 Oeste 30 Oeste 0.2 -- -- 100
2021-02-06 05:00:00 8.9 8 Oeste 14 Oeste 1.4 -- -- 100
2021-02-06 04:00:00 8.7 0 Calma 7 Sudoeste 0.6 -- -- 100
2021-02-06 03:00:00 8.6 5 Sudoeste 19 Oeste 0 -- -- 100
2021-02-06 02:00:00 8.8 10 Oeste 19 Oeste 0 -- -- 100
2021-02-06 01:00:00 9.1 4 Oeste 17 Oeste 0 -- -- 100
2021-02-06 00:00:00 9.4 5 Oeste 15 Sudoeste 0 -- -- 100
2021-02-05 23:00:00 9.8 7 Oeste 13 Oeste 0 -- -- 100
2021-02-05 22:00:00 9.8 0 Calma 3 Sudoeste 0.2 -- -- 100
2021-02-05 21:00:00 9.8 2 Oeste 11 Oeste 1.4 -- -- 100
2021-02-05 20:00:00 10.1 5 Oeste 13 Sur 1.2 -- -- 98
2021-02-05 19:00:00 11.1 5 Sur 16 Sur 4.4 -- -- 97
2021-02-05 18:00:00 11.3 11 Sudeste 33 Sur 0.4 -- -- 95
2021-02-05 17:00:00 11.6 13 Sudeste 22 Sur 2.6 -- -- 97
2021-02-05 16:00:00 11.6 7 Sudeste 28 Sudeste 1.8 -- -- 95
2021-02-05 15:00:00 11.9 10 Sudeste 32 Este 1 -- -- 92
2021-02-05 14:00:00 12.3 0 Calma 18 Sudeste 0.4 -- -- 92
2021-02-05 13:00:00 11.6 11 Este 22 Este 0 -- -- 91
2021-02-05 12:00:00 10.5 8 Este 22 Sudoeste 3 -- -- 97
2021-02-05 11:00:00 10.5 4 Norte 12 Sur 3.2 -- -- 100
2021-02-05 10:00:00 10.7 2 Nordeste 8 Nordeste 2.8 -- -- 100
2021-02-05 09:00:00 10.7 6 Sudeste 20 Este 4.2 -- -- 100
2021-02-05 08:00:00 10.7 5 Sudeste 19 Este 4 -- -- 100
2021-02-05 07:00:00 10.5 4 Este 14 Sudeste 1 -- -- 100
2021-02-05 06:00:00 10.5 2 Nordeste 9 Sudoeste 1.6 -- -- 100
2021-02-05 05:00:00 10.4 5 Nordeste 14 Sudoeste 1.4 -- -- 100
2021-02-05 04:00:00 10.4 4 Nordeste 9 Noroeste 0.8 -- -- 100
2021-02-05 03:00:00 10.4 6 Oeste 12 Oeste 0.6 -- -- 100
2021-02-05 02:00:00 10.5 4 Sudeste 15 Sudoeste 0.4 -- -- 100
2021-02-05 01:00:00 10.3 3 Sudeste 6 Sur 0 -- -- 100
2021-02-05 00:00:00 10.4 2 Norte 12 Sudeste 0 -- -- 100
2021-02-04 23:00:00 10.4 6 Sudeste 15 Noroeste 0.2 -- -- 100
2021-02-04 22:00:00 10.1 8 Oeste 14 Noroeste 0 -- -- 100
2021-02-04 21:00:00 10.1 0 Calma 9 Nordeste 0 -- -- 98
2021-02-04 20:00:00 10.8 6 Nordeste 10 Nordeste 0 -- -- 97
2021-02-04 19:00:00 11.9 2 Norte 8 Este 0 -- -- 93
2021-02-04 18:00:00 12.4 7 Este 17 Sudeste 0 -- -- 93
2021-02-04 17:00:00 12.4 2 Nordeste 12 Sur 0 -- -- 94
2021-02-04 16:00:00 11.5 5 Nordeste 15 Norte 3.2 -- -- 98
2021-02-04 15:00:00 11.6 12 Norte 29 Nordeste 0.8 -- -- 94
2021-02-04 14:00:00 13.6 15 Sur 40 Sur 0.6 -- -- 94
2021-02-04 13:00:00 13.1 4 Sudeste 19 Sur 1.2 -- -- 98
2021-02-04 12:00:00 12.9 9 Sur 35 Sur 0.2 -- -- 94
2021-02-04 11:00:00 12.8 17 Sur 29 Sur 0.2 -- -- 95
2021-02-04 10:00:00 13 14 Sur 26 Sudeste 0 -- -- 95
2021-02-04 09:00:00 11.7 5 Este 13 Este 0 -- -- 100
2021-02-04 08:00:00 11.6 7 Este 13 Este 0 -- -- 100
2021-02-04 07:00:00 11.7 5 Este 12 Este 0 -- -- 100
2021-02-04 06:00:00 11.6 3 Este 6 Este 0 -- -- 100
2021-02-04 05:00:00 11.1 0 Calma 3 Norte 1.6 -- -- 100
2021-02-04 04:00:00 11.2 0 Calma 3 Norte 1 -- -- 100
2021-02-04 03:00:00 11.3 0 Calma 3 Sudeste 0.6 -- -- 100
2021-02-04 02:00:00 11.3 0 Calma 3 Oeste 1 -- -- 100
2021-02-04 01:00:00 11.4 0 Calma 3 Oeste 1.4 -- -- 100
2021-02-04 00:00:00 11.4 3 Oeste 9 Oeste 0.8 -- -- 99
2021-02-03 23:00:00 11.8 5 Sudoeste 14 Sudoeste 1 -- -- 99
2021-02-03 22:00:00 12.9 4 Oeste 17 Sur 0 -- -- 94
2021-02-03 21:00:00 13.2 9 Sur 21 Sur 0 -- -- 90
2021-02-03 20:00:00 13.5 8 Sur 23 Sur 0 -- -- 88
2021-02-03 19:00:00 14 12 Sur 24 Sur 0 -- -- 85
2021-02-03 18:00:00 14.8 11 Sudeste 22 Sur 0 -- -- 83
2021-02-03 17:00:00 15.5 12 Sudeste 24 Sur 0 -- -- 78
2021-02-03 16:00:00 15.3 16 Sur 30 Sudeste 0 -- -- 78
2021-02-03 15:00:00 15.1 15 Sur 25 Sudoeste 0 -- -- 80
2021-02-03 14:00:00 14.9 15 Sur 27 Sur 0 -- -- 80
2021-02-03 13:00:00 14.4 12 Sur 25 Sur 0 -- -- 80
2021-02-03 12:00:00 14 10 Sur 24 Sudeste 0 -- -- 83
2021-02-03 11:00:00 13 11 Sur 23 Sur 0 -- -- 85
2021-02-03 10:00:00 12.2 3 Este 14 Sudeste 0 -- -- 87
2021-02-03 09:00:00 12.1 5 Sudeste 13 Sudeste 0 -- -- 87
2021-02-03 08:00:00 11.4 4 Este 6 Este 0 -- -- 90
2021-02-03 07:00:00 11.7 3 Sudeste 9 Este 0 -- -- 87
2021-02-03 06:00:00 11.8 3 Este 13 Sudeste 0 -- -- 85
2021-02-03 05:00:00 11.9 3 Sudeste 10 Sur 0 -- -- 85
2021-02-03 04:00:00 11.9 4 Sur 12 Sur 0 -- -- 85
2021-02-03 03:00:00 11.3 0 Calma 4 Norte 0 -- -- 95
2021-02-03 02:00:00 11.6 0 Calma 3 Sudeste 0 -- -- 95
2021-02-03 01:00:00 11.8 0 Calma 3 Noroeste 0 -- -- 96
2021-02-03 00:00:00 12.1 0 Calma 10 Oeste 0 -- -- 93
2021-02-02 23:00:00 12.4 7 Oeste 13 Oeste 0 -- -- 93
2021-02-02 22:00:00 12.7 3 Noroeste 12 Sur 0 -- -- 95
2021-02-02 21:00:00 12.9 3 Sur 8 Sudoeste 0 -- -- 95
2021-02-02 20:00:00 13.3 2 Sudoeste 6 Sur 0 -- -- 92
2021-02-02 19:00:00 14.2 3 Sudoeste 7 Oeste 0 -- -- 88
2021-02-02 18:00:00 15 5 Oeste 14 Noroeste 0 -- -- 81
2021-02-02 17:00:00 15.4 9 Sudoeste 16 Sudoeste 0 -- -- 79
2021-02-02 16:00:00 15.2 10 Sudoeste 19 Sudoeste 0 -- -- 80
2021-02-02 15:00:00 14.5 8 Oeste 16 Oeste 0 -- -- 85
2021-02-02 14:00:00 14.6 4 Oeste 16 Oeste 0 -- -- 87
2021-02-02 13:00:00 13.7 10 Oeste 19 Oeste 0 -- -- 89
2021-02-02 12:00:00 13.4 6 Noroeste 11 Oeste 0 -- -- 92
2021-02-02 11:00:00 12.9 0 Calma 4 Sudoeste 0 -- -- 99
2021-02-02 10:00:00 12.2 0 Calma 4 Oeste 0 -- -- 100
2021-02-02 09:00:00 11.8 3 Oeste 10 Oeste 0.4 -- -- 100
2021-02-02 08:00:00 11.8 0 Calma 4 Oeste 0.4 -- -- 100
2021-02-02 07:00:00 11.8 0 Calma 5 Este 0.2 -- -- 100
2021-02-02 06:00:00 11.8 0 Calma 4 Sudoeste 0 -- -- 100
2021-02-02 05:00:00 11.6 3 Sur 5 Sur 0 -- -- 100
2021-02-02 04:00:00 11.6 0 Calma 3 Sudeste 0.2 -- -- 100
2021-02-02 03:00:00 11.4 0 Calma 3 Norte 0.2 -- -- 100
2021-02-02 02:00:00 11.4 2 Este 5 Este 0 -- -- 99
2021-02-02 01:00:00 11.7 0 Calma 4 Sudoeste 0 -- -- 98
2021-02-02 00:00:00 11.4 0 Calma 5 Norte 0 -- -- 98
2021-02-01 23:00:00 11.2 0 Calma 5 Nordeste 0 -- -- 97
2021-02-01 22:00:00 11 0 Calma 7 Norte 0 -- -- 97
2021-02-01 21:00:00 11.9 3 Nordeste 7 Nordeste 0 -- -- 93
2021-02-01 20:00:00 13.3 0 Calma 5 Oeste 0 -- -- 90
2021-02-01 19:00:00 14.1 2 Oeste 6 Noroeste 0 -- -- 84
2021-02-01 18:00:00 14.5 5 Noroeste 15 Oeste 0 -- -- 81
2021-02-01 17:00:00 15 10 Oeste 18 Noroeste 0 -- -- 76
2021-02-01 16:00:00 15.1 10 Oeste 19 Oeste 0 -- -- 78
2021-02-01 15:00:00 15.4 14 Oeste 22 Oeste 0 -- -- 75
2021-02-01 14:00:00 15 12 Oeste 23 Noroeste 0 -- -- 77
2021-02-01 13:00:00 14.2 9 Noroeste 19 Noroeste 0 -- -- 80
2021-02-01 12:00:00 13.8 8 Oeste 17 Oeste 0 -- -- 83
2021-02-01 11:00:00 12.6 2 Noroeste 12 Oeste 0 -- -- 87
2021-02-01 10:00:00 11.8 5 Oeste 9 Oeste 0 -- -- 99
2021-02-01 09:00:00 11.5 4 Oeste 16 Noroeste 0 -- -- 99
2021-02-01 08:00:00 12.1 8 Noroeste 14 Oeste 0 -- -- 99
2021-02-01 07:00:00 12.7 8 Oeste 14 Oeste 0 -- -- 99
2021-02-01 06:00:00 12.9 4 Oeste 15 Oeste 0 -- -- 98
2021-02-01 05:00:00 13 8 Oeste 18 Noroeste 0 -- -- 97
2021-02-01 04:00:00 13.2 11 Oeste 23 Noroeste 0 -- -- 97
2021-02-01 03:00:00 13.7 11 Noroeste 38 Oeste 0.2 -- -- 95
2021-02-01 02:00:00 13.8 10 Oeste 21 Oeste 0 -- -- 100
2021-02-01 01:00:00 13.9 13 Oeste 23 Oeste 0.4 -- -- 100
2021-02-01 00:00:00 13.7 8 Oeste 16 Oeste 1.2 -- -- 100
2021-01-31 23:00:00 13.5 8 Oeste 19 Oeste 1.2 -- -- 100
2021-01-31 22:00:00 13.4 7 Oeste 22 Oeste 0.8 -- -- 100
2021-01-31 21:00:00 13.3 8 Oeste 17 Oeste 1.4 -- -- 100
2021-01-31 20:00:00 13.2 9 Oeste 23 Oeste 0.4 -- -- 100
2021-01-31 19:00:00 13.3 12 Oeste 25 Oeste 0.6 -- -- 100
2021-01-31 18:00:00 13.1 7 Oeste 20 Sudoeste 1 -- -- 99
2021-01-31 17:00:00 13.2 12 Oeste 20 Oeste 1.2 -- -- 99
2021-01-31 16:00:00 13.5 12 Oeste 24 Oeste 0.2 -- -- 98
2021-01-31 15:00:00 13.3 13 Oeste 29 Oeste 0 -- -- 95
2021-01-31 14:00:00 13.9 17 Oeste 36 Oeste 0 -- -- 86
2021-01-31 13:00:00 13.4 21 Oeste 36 Oeste 0 -- -- 88
2021-01-31 12:00:00 12.9 15 Oeste 31 Oeste 0 -- -- 90
2021-01-31 11:00:00 12.8 16 Oeste 29 Sudoeste 0 -- -- 92
2021-01-31 10:00:00 11.7 13 Oeste 19 Oeste 0 -- -- 96
2021-01-31 09:00:00 11 5 Oeste 12 Oeste 0 -- -- 97
2021-01-31 08:00:00 10.6 6 Oeste 9 Sudoeste 0 -- -- 96
2021-01-31 07:00:00 10.5 4 Oeste 17 Oeste 0 -- -- 95
2021-01-31 06:00:00 10.5 10 Oeste 21 Oeste 0 -- -- 93
2021-01-31 05:00:00 9.8 10 Oeste 17 Oeste 0 -- -- 96
2021-01-31 04:00:00 9.2 0 Calma 10 Sudoeste 0 -- -- 96
2021-01-31 03:00:00 9.2 6 Oeste 24 Sudoeste 0 -- -- 95
2021-01-31 02:00:00 9.4 9 Oeste 19 Norte 0 -- -- 95
2021-01-31 01:00:00 9.2 5 Oeste 21 Oeste 0 -- -- 93
2021-01-31 00:00:00 9.9 13 Oeste 26 Oeste 0 -- -- 90
2021-01-30 23:00:00 9.9 8 Oeste 22 Oeste 0 -- -- 87
2021-01-30 22:00:00 10.5 8 Oeste 17 Oeste 0 -- -- 82
2021-01-30 21:00:00 11 10 Oeste 34 Noroeste 0 -- -- 76
2021-01-30 20:00:00 11.4 14 Oeste 32 Oeste 0 -- -- 76
2021-01-30 19:00:00 12.7 20 Oeste 37 Oeste 0 -- -- 68
2021-01-30 18:00:00 13.8 22 Oeste 39 Oeste 0 -- -- 69
2021-01-30 17:00:00 14.9 20 Oeste 40 Oeste 0 -- -- 63
2021-01-30 16:00:00 15.3 21 Oeste 41 Noroeste 0 -- -- 64
2021-01-30 15:00:00 15.6 22 Oeste 42 Oeste 0 -- -- 64
2021-01-30 14:00:00 15 19 Noroeste 38 Oeste 0 -- -- 65
2021-01-30 13:00:00 14.7 21 Noroeste 40 Oeste 0 -- -- 71
2021-01-30 12:00:00 13.5 17 Noroeste 32 Noroeste 0 -- -- 81
2021-01-30 11:00:00 12.7 14 Oeste 26 Oeste 0 -- -- 96
2021-01-30 10:00:00 12.1 9 Oeste 20 Sudoeste 0 -- -- 100
2021-01-30 09:00:00 11.8 11 Oeste 19 Oeste 1 -- -- 100
2021-01-30 08:00:00 11.5 2 Noroeste 5 Noroeste 1 -- -- 100
2021-01-30 07:00:00 11.4 0 Calma 3 Norte 0.6 -- -- 100
2021-01-30 06:00:00 11.3 2 Nordeste 3 Este 0.2 -- -- 100
2021-01-30 05:00:00 11.3 0 Calma 8 Oeste 0 -- -- 100
2021-01-30 04:00:00 11.4 5 Oeste 26 Oeste 0 -- -- 99
2021-01-30 03:00:00 12.2 11 Oeste 21 Sudoeste 0 -- -- 96
2021-01-30 02:00:00 12.3 4 Sudoeste 15 Sudeste 0 -- -- 96
2021-01-30 01:00:00 12.2 3 Sudeste 5 Sudeste 0 -- -- 97
2021-01-30 00:00:00 12.3 3 Sudeste 8 Sudeste 0 -- -- 96
2021-01-29 23:00:00 12.4 2 Norte 6 Sudoeste 0 -- -- 95
2021-01-29 22:00:00 12.4 0 Calma 8 Oeste 0 -- -- 95
2021-01-29 21:00:00 12.4 0 Calma 4 Oeste 0 -- -- 95
2021-01-29 20:00:00 12.5 3 Sur 13 Sur 0 -- -- 95
2021-01-29 19:00:00 12.7 7 Sur 19 Sudoeste 0 -- -- 94
2021-01-29 18:00:00 13.8 10 Sudoeste 18 Sudoeste 0 -- -- 91
2021-01-29 17:00:00 15.6 9 Sudoeste 20 Sudoeste 0 -- -- 85
2021-01-29 16:00:00 16.6 11 Sudoeste 17 Sudoeste 0 -- -- 85
2021-01-29 15:00:00 16.2 11 Oeste 17 Oeste 0 -- -- 93
2021-01-29 14:00:00 14.7 5 Oeste 9 Oeste 0 -- -- 100
2021-01-29 13:00:00 12.1 0 Calma 5 Sudoeste 0 -- -- 100
2021-01-29 12:00:00 10.9 3 Sudoeste 8 Oeste 0 -- -- 100
2021-01-29 11:00:00 9.4 3 Noroeste 8 Noroeste 0 -- -- 100
2021-01-29 10:00:00 8.6 4 Oeste 6 Oeste 0 -- -- 100
2021-01-29 09:00:00 8.5 4 Este 6 Este 0 -- -- 100
2021-01-29 08:00:00 7.8 3 Este 6 Sudeste 0 -- -- 100
2021-01-29 07:00:00 6.2 0 Calma 6 Sur 0.2 -- -- 100
2021-01-29 06:00:00 5.4 0 Calma 6 Sudoeste 0 -- -- 100
2021-01-29 05:00:00 6.8 4 Sur 6 Sur 0 -- -- 100
2021-01-29 04:00:00 7.9 2 Sudeste 13 Norte 0 -- -- 100
2021-01-29 03:00:00 6.7 2 Noroeste 8 Sur 0 -- -- 100
2021-01-29 02:00:00 7.7 2 Nordeste 6 Sur 0 -- -- 100
2021-01-29 01:00:00 8.6 3 Este 7 Este 0 -- -- 100
2021-01-29 00:00:00 9.2 0 Calma 8 Este 0 -- -- 100
2021-01-28 23:00:00 9.5 4 Este 6 Nordeste 0 -- -- 98
2021-01-28 22:00:00 10.1 0 Calma 6 Este 0 -- -- 97
2021-01-28 21:00:00 11.2 0 Calma 5 Este 0 -- -- 96
2021-01-28 20:00:00 14 0 Calma 8 Norte 0 -- -- 91
2021-01-28 19:00:00 17 4 Noroeste 10 Oeste 0 -- -- 85
2021-01-28 18:00:00 19.8 5 Oeste 16 Oeste 0 -- -- 75
2021-01-28 17:00:00 20.5 12 Sudoeste 18 Sudoeste 0 -- -- 73
2021-01-28 16:00:00 21.6 11 Oeste 18 Oeste 0 -- -- 70
2021-01-28 15:00:00 21.3 6 Oeste 13 Noroeste 0 -- -- 69
2021-01-28 14:00:00 20.5 5 Noroeste 8 Noroeste 0 -- -- 67
2021-01-28 13:00:00 18.1 0 Calma 5 Sudoeste 0 -- -- 74
2021-01-28 12:00:00 14.7 0 Calma 3 Sudoeste 0 -- -- 88
2021-01-28 11:00:00 11.5 0 Calma 2 Nordeste 0 -- -- 100
2021-01-28 10:00:00 9.2 0 Calma 7 Sudeste 0 -- -- 100
2021-01-28 09:00:00 4.9 5 Sudeste 8 Sudeste 0 -- -- 100
2021-01-28 08:00:00 4.9 0 Calma 5 Este 0 -- -- 100
2021-01-28 07:00:00 6 4 Este 5 Sudeste 0 -- -- 100
2021-01-28 06:00:00 5.6 5 Este 6 Este 0 -- -- 100
2021-01-28 05:00:00 5.5 0 Calma 8 Nordeste 0.2 -- -- 100
2021-01-28 04:00:00 6.1 3 Sudeste 8 Sudeste 0 -- -- 100
2021-01-28 03:00:00 7.3 6 Sudeste 8 Sudeste 0 -- -- 100
2021-01-28 02:00:00 7.7 2 Sudeste 7 Sudeste 0 -- -- 100
2021-01-28 01:00:00 8.3 3 Sudeste 7 Sudeste 0 -- -- 100
2021-01-28 00:00:00 8.9 4 Este 7 Sur 0 -- -- 100
2021-01-27 23:00:00 9.1 0 Calma 5 Sur 0 -- -- 99
2021-01-27 22:00:00 10.1 0 Calma 6 Sudeste 0 -- -- 98
2021-01-27 21:00:00 10.9 0 Calma 5 Sudeste 0 -- -- 96
2021-01-27 20:00:00 13.4 2 Norte 6 Este 0 -- -- 92
2021-01-27 19:00:00 14.8 3 Noroeste 12 Norte 0 -- -- 89
2021-01-27 18:00:00 15.4 7 Norte 22 Norte 0 -- -- 87
2021-01-27 17:00:00 16.8 10 Norte 16 Nordeste 0 -- -- 84
2021-01-27 16:00:00 16.4 8 Noroeste 13 Noroeste 0 -- -- 86
2021-01-27 15:00:00 16.3 7 Norte 11 Norte 0 -- -- 87
2021-01-27 14:00:00 16.3 6 Norte 12 Nordeste 0 -- -- 88
2021-01-27 13:00:00 16.1 6 Norte 12 Norte 0 -- -- 88
2021-01-27 12:00:00 15.5 5 Norte 13 Norte 0 -- -- 91
2021-01-27 11:00:00 14.6 9 Norte 16 Norte 0 -- -- 98
2021-01-27 10:00:00 14.1 3 Oeste 7 Norte 0 -- -- 100
2021-01-27 09:00:00 13.2 3 Norte 8 Norte 0 -- -- 100
2021-01-27 08:00:00 13 0 Calma 4 Sudoeste 0 -- -- 100
2021-01-27 07:00:00 13.3 0 Calma 5 Sudoeste 0 -- -- 100
2021-01-27 06:00:00 13.8 -- -- -- -- 0 -- -- 100
2021-01-27 05:00:00 14.1 0 Calma 7 Noroeste 0 -- -- 100
2021-01-27 04:00:00 14.4 4 Noroeste 9 Oeste 0 -- -- 100
2021-01-27 03:00:00 14.5 4 Noroeste 12 Noroeste 0 -- -- 100
2021-01-27 02:00:00 14.7 6 Oeste 16 Oeste 0 -- -- 100
2021-01-27 01:00:00 14.9 9 Oeste 15 Sudoeste 0 -- -- 100
2021-01-27 00:00:00 15.1 5 Oeste 12 Noroeste 0.2 -- -- 100
2021-01-26 23:00:00 15.2 3 Oeste 12 Oeste 0 -- -- 100
2021-01-26 22:00:00 15.3 4 Oeste 14 Oeste 0 -- -- 100
2021-01-26 21:00:00 15.5 9 Oeste 15 Oeste 0 -- -- 100
2021-01-26 20:00:00 15.8 6 Oeste 9 Oeste 0.2 -- -- 100
2021-01-26 19:00:00 15.8 5 Oeste 8 Oeste 0 -- -- 100
2021-01-26 18:00:00 16.1 4 Sudoeste 7 Oeste 0 -- -- 99
2021-01-26 17:00:00 16.1 5 Sudoeste 9 Sudoeste 0 -- -- 100
2021-01-26 16:00:00 15.9 2 Sudoeste 5 Sudoeste 0.8 -- -- 100
2021-01-26 15:00:00 15.4 0 Calma 6 Noroeste 0.2 -- -- 100
2021-01-26 14:00:00 15.1 4 Noroeste 5 Noroeste 0.4 -- -- 100
2021-01-26 13:00:00 14.5 2 Noroeste 5 Noroeste 0.4 -- -- 100
2021-01-26 12:00:00 14.1 0 Calma 3 Sudeste 0.2 -- -- 100
2021-01-26 11:00:00 13.7 0 Calma 3 Sudeste 0 -- -- 100
2021-01-26 10:00:00 13.1 0 Calma 2 Sudoeste 0.2 -- -- 100
2021-01-26 09:00:00 12.9 0 Calma 2 Noroeste 0.8 -- -- 100
2021-01-26 08:00:00 12.8 0 Calma 4 Este 0.8 -- -- 100
2021-01-26 07:00:00 12.8 3 Este 5 Este 0.6 -- -- 100
2021-01-26 06:00:00 12.8 3 Este 4 Este 0.2 -- -- 100
2021-01-26 05:00:00 12.8 0 Calma 3 Noroeste 0 -- -- 100
2021-01-26 04:00:00 12.9 3 Noroeste 8 Sudoeste 0.2 -- -- 100
2021-01-26 03:00:00 12.8 0 Calma 7 Oeste 0 -- -- 99
2021-01-26 02:00:00 12.9 0 Calma 9 Oeste 0 -- -- 98
2021-01-26 01:00:00 13 5 Oeste 9 Oeste 0 -- -- 97
2021-01-26 00:00:00 13.1 5 Oeste 12 Oeste 0 -- -- 95
2021-01-25 23:00:00 13.3 6 Oeste 22 Oeste 0 -- -- 94
2021-01-25 22:00:00 13.3 9 Oeste 27 Oeste 0 -- -- 94
2021-01-25 21:00:00 13.9 10 Oeste 24 Oeste 0 -- -- 93
2021-01-25 20:00:00 14.1 10 Oeste 22 Oeste 0 -- -- 93
2021-01-25 19:00:00 14.5 12 Oeste 26 Noroeste 0 -- -- 88
2021-01-25 18:00:00 15 8 Oeste 17 Oeste 0 -- -- 86
2021-01-25 17:00:00 15.3 15 Oeste 28 Oeste 0 -- -- 84
2021-01-25 16:00:00 15 13 Oeste 27 Oeste 0 -- -- 84
2021-01-25 15:00:00 15.4 15 Oeste 31 Oeste 0 -- -- 84
2021-01-25 14:00:00 14.1 14 Oeste 31 Oeste 0 -- -- 94
2021-01-25 13:00:00 14.2 19 Oeste 35 Oeste 0.6 -- -- 94
2021-01-25 12:00:00 14 9 Oeste 14 Oeste 1.4 -- -- 100
2021-01-25 11:00:00 13.4 5 Oeste 12 Oeste 0.8 -- -- 100
2021-01-25 10:00:00 12.9 4 Oeste 8 Noroeste 0.6 -- -- 100
2021-01-25 09:00:00 12.4 3 Noroeste 7 Oeste 0.6 -- -- 100
2021-01-25 08:00:00 11.9 3 Noroeste 6 Noroeste 0.4 -- -- 100
2021-01-25 07:00:00 11.7 0 Calma 8 Nordeste 0.6 -- -- 100
2021-01-25 06:00:00 11.5 0 Calma 5 Noroeste 0 -- -- 100
2021-01-25 05:00:00 11.3 0 Calma 4 Noroeste 0 -- -- 100
2021-01-25 04:00:00 11.1 0 Calma 4 Norte 0.4 -- -- 100
2021-01-25 03:00:00 11 0 Calma 0 Calma 1 -- -- 100
2021-01-25 02:00:00 10.8 0 Calma 2 Sudeste 0.2 -- -- 99
2021-01-25 01:00:00 10.7 0 Calma 3 Este 0 -- -- 99
2021-01-25 00:00:00 10.4 0 Calma 3 Este 0 -- -- 98